Time;durP1;ratioP1;P1;durP2;ratioP2;P2;SDS_P1;SDS_P2;PMS_P1;PMS_P2;Temp;Humidity;BMP_temperature;BMP_pressure;BME280_temperature;BME280_humidity;BME280_pressure;Samples;Min_cycle;Max_cycle;Signal;HPM_P1;HPM_P2
2022/10/07 00:00:21;;;;;;;20.08;14.25;;;384.70;2329.60;;;;;;5017700;28;20026;-76
2022/10/07 00:02:46;;;;;;;22.30;14.43;;;384.70;2329.60;;;;;;5021801;28;20057;-76
2022/10/07 00:05:12;;;;;;;16.77;14.48;;;384.50;2329.60;;;;;;5032297;28;20017;-76
2022/10/07 00:07:38;;;;;;;19.45;15.23;;;384.60;2329.60;;;;;;5021376;28;20454;-76
2022/10/07 00:10:04;;;;;;;18.98;14.48;;;384.60;2329.60;;;;;;5017561;28;20068;-76
2022/10/07 00:12:30;;;;;;;22.02;14.82;;;384.60;2329.60;;;;;;5000050;28;20022;-76
2022/10/07 00:14:56;;;;;;;19.63;14.88;;;384.50;2329.60;;;;;;5012148;28;20100;-76
2022/10/07 00:17:22;;;;;;;21.80;14.70;;;384.50;2329.60;;;;;;5020440;28;20072;-78
2022/10/07 00:19:47;;;;;;;19.38;14.18;;;384.60;2329.60;;;;;;5014709;28;20057;-77
2022/10/07 00:22:13;;;;;;;19.05;14.05;;;384.60;2329.60;;;;;;5014762;28;20025;-77
2022/10/07 00:24:39;;;;;;;22.80;14.88;;;384.70;2329.60;;;;;;5017451;28;20101;-76
2022/10/07 00:27:05;;;;;;;20.40;14.38;;;384.70;2329.60;;;;;;5014686;28;20018;-76
2022/10/07 00:29:30;;;;;;;19.35;15.80;;;384.70;2329.60;;;;;;5015006;28;20060;-76
2022/10/07 00:31:56;;;;;;;22.75;15.40;;;384.70;2329.60;;;;;;5004597;28;20029;-76
2022/10/07 00:34:22;;;;;;;23.52;15.20;;;384.70;2329.60;;;;;;5031965;28;20026;-77
2022/10/07 00:36:50;;;;;;;22.58;15.63;;;384.70;2329.60;;;;;;5019524;28;20483;-77
2022/10/07 00:39:17;;;;;;;23.30;16.73;;;384.70;2329.60;;;;;;5017226;28;20430;-76
2022/10/07 00:41:50;;;;;;;22.35;18.23;;;384.80;2329.60;;;;;;5016474;28;20061;-76
2022/10/07 00:44:31;;;;;;;21.25;17.95;;;384.80;2329.60;;;;;;5017108;28;20375;-77
2022/10/07 00:46:58;;;;;;;24.05;17.60;;;384.80;2329.60;;;;;;5022426;28;20033;-76
2022/10/07 00:49:28;;;;;;;25.38;18.13;;;384.70;2329.60;;;;;;5013529;28;20152;-76
2022/10/07 00:51:54;;;;;;;26.20;18.75;;;384.70;2329.60;;;;;;5031797;28;20041;-76
2022/10/07 00:54:20;;;;;;;21.25;17.95;;;384.70;2329.60;;;;;;5017679;28;20033;-76
2022/10/07 00:56:50;;;;;;;22.02;18.50;;;384.70;2329.60;;;;;;5011569;28;20030;-76
2022/10/07 00:59:19;;;;;;;22.55;17.90;;;384.60;2329.60;;;;;;5016184;28;20033;-76
2022/10/07 01:01:45;;;;;;;22.42;17.92;;;384.60;2329.60;;;;;;5011532;28;20028;-76
2022/10/07 01:04:13;;;;;;;19.98;17.65;;;384.60;2329.60;;;;;;5019672;28;20133;-77
2022/10/07 01:06:40;;;;;;;22.20;18.48;;;384.60;2329.60;;;;;;5016913;28;20521;-76
2022/10/07 01:09:07;;;;;;;19.92;17.70;;;384.60;2329.60;;;;;;5020406;28;20116;-76
2022/10/07 01:11:38;;;;;;;19.83;17.17;;;384.50;2329.60;;;;;;5020340;28;20018;-76
2022/10/07 01:14:14;;;;;;;22.95;17.48;;;384.50;2329.60;;;;;;5023171;28;20387;-76
2022/10/07 01:16:59;;;;;;;26.08;16.80;;;384.40;2329.60;;;;;;5018028;28;20053;-77
2022/10/07 01:19:46;;;;;;;22.00;18.33;;;384.40;2329.60;;;;;;5019250;28;20042;-77
2022/10/07 01:22:42;;;;;;;20.58;17.13;;;384.30;2329.60;;;;;;5011186;28;20069;-76
2022/10/07 01:25:23;;;;;;;28.08;18.52;;;384.40;2329.60;;;;;;5016937;28;20433;-77
2022/10/07 01:27:59;;;;;;;26.17;18.15;;;384.30;2329.60;;;;;;5022334;28;20045;-77
2022/10/07 01:30:27;;;;;;;21.77;18.25;;;384.20;2329.60;;;;;;5013693;28;20018;-77
2022/10/07 01:33:00;;;;;;;22.30;18.17;;;384.20;2329.60;;;;;;5016941;28;20021;-76
2022/10/07 01:35:32;;;;;;;21.35;17.75;;;384.10;2329.60;;;;;;5034400;28;20025;-76
2022/10/07 01:38:04;;;;;;;22.05;16.73;;;384.00;2329.60;;;;;;4998909;28;20042;-77
2022/10/07 01:40:47;;;;;;;23.67;17.80;;;384.00;2329.60;;;;;;5015656;28;20484;-77
2022/10/07 01:43:19;;;;;;;23.25;18.00;;;384.00;2329.60;;;;;;5025470;28;20061;-76
2022/10/07 01:45:47;;;;;;;19.92;17.23;;;359.30;2329.60;;;;;;5014273;28;20018;-76
2022/10/07 01:48:14;;;;;;;21.50;16.63;;;359.30;2329.60;;;;;;5027692;28;20522;-77
2022/10/07 01:50:40;;;;;;;19.20;16.13;;;359.30;2329.60;;;;;;5013836;28;20022;-76
2022/10/07 01:53:21;;;;;;;21.17;16.13;;;359.30;2329.60;;;;;;5017854;28;20097;-76
2022/10/07 01:56:30;;;;;;;20.00;16.67;;;359.20;2329.60;;;;;;5015994;28;20030;-76
2022/10/07 01:59:10;;;;;;;21.20;15.88;;;359.30;2329.60;;;;;;4955427;28;20102;-77
2022/10/07 02:01:35;;;;;;;19.42;15.55;;;359.20;2329.60;;;;;;4964775;28;20073;-76
2022/10/07 02:04:12;;;;;;;19.52;16.00;;;359.20;2329.60;;;;;;4961876;28;20054;-76
2022/10/07 02:06:57;;;;;;;19.08;15.85;;;359.20;2329.60;;;;;;4973799;28;20110;-76
2022/10/07 02:09:31;;;;;;;27.80;16.55;;;359.20;2329.60;;;;;;4967822;28;20039;-77
2022/10/07 02:12:14;;;;;;;19.15;16.40;;;359.20;2329.60;;;;;;4958752;28;20023;-79
2022/10/07 02:14:52;;;;;;;22.92;17.42;;;359.20;2329.60;;;;;;4958145;28;20033;-76
2022/10/07 02:17:20;;;;;;;23.67;17.73;;;359.20;2329.60;;;;;;4958111;28;20050;-76
2022/10/07 02:19:52;;;;;;;21.73;16.70;;;359.20;2329.60;;;;;;4962728;28;20385;-76
2022/10/07 02:22:21;;;;;;;21.67;17.85;;;359.20;2329.60;;;;;;4953618;28;20406;-76
2022/10/07 02:24:50;;;;;;;23.67;18.92;;;359.20;2329.60;;;;;;4953122;28;20114;-76
2022/10/07 02:27:23;;;;;;;25.75;18.73;;;359.20;2329.60;;;;;;4941061;28;20027;-76
2022/10/07 02:29:52;;;;;;;20.77;18.38;;;359.20;2329.60;;;;;;4958815;28;20401;-77
2022/10/07 02:32:21;;;;;;;21.30;17.10;;;359.20;2329.60;;;;;;4957764;28;20082;-76
2022/10/07 02:34:52;;;;;;;24.10;18.02;;;359.20;2329.60;;;;;;4950292;28;20104;-76
2022/10/07 02:37:25;;;;;;;22.85;17.83;;;359.10;2329.60;;;;;;5001243;28;20034;-76
2022/10/07 02:39:55;;;;;;;28.08;17.92;;;359.10;2329.60;;;;;;5002416;28;20067;-76
2022/10/07 02:42:26;;;;;;;23.05;19.20;;;359.00;2329.60;;;;;;5003814;28;20488;-77
2022/10/07 02:45:27;;;;;;;21.52;18.95;;;359.00;2329.60;;;;;;4999714;28;20021;-76
2022/10/07 02:48:20;;;;;;;27.40;19.08;;;359.00;2329.60;;;;;;4953194;29;20118;-77
2022/10/07 02:50:51;;;;;;;21.73;18.70;;;359.00;2329.60;;;;;;4877582;29;20029;-75
2022/10/07 02:53:20;;;;;;;26.13;20.23;;;359.00;2329.60;;;;;;4877665;29;20056;-76
2022/10/07 02:55:49;;;;;;;23.80;18.88;;;359.00;2329.60;;;;;;4877255;29;20037;-76
2022/10/07 02:58:16;;;;;;;21.90;19.25;;;358.90;2329.60;;;;;;4877368;29;20165;-76
2022/10/07 03:00:46;;;;;;;27.77;19.45;;;358.90;2329.60;;;;;;4877551;29;20025;-76
2022/10/07 03:03:12;;;;;;;31.70;21.25;;;359.00;2329.60;;;;;;4877052;29;20132;-77
2022/10/07 03:05:38;;;;;;;35.35;21.95;;;359.00;2329.60;;;;;;4876836;29;20033;-76
2022/10/07 03:08:07;;;;;;;29.25;21.77;;;359.00;2329.60;;;;;;4877280;29;20108;-76
2022/10/07 03:10:33;;;;;;;28.25;23.88;;;358.90;2329.60;;;;;;4877127;29;20385;-77
2022/10/07 03:12:59;;;;;;;31.73;22.15;;;359.00;2329.60;;;;;;4877202;29;20031;-77
2022/10/07 03:15:25;;;;;;;24.83;21.75;;;359.00;2329.60;;;;;;4877253;29;20472;-79
2022/10/07 03:17:50;;;;;;;28.40;22.00;;;359.00;2329.60;;;;;;4877148;29;20112;-76
2022/10/07 03:20:16;;;;;;;24.38;21.23;;;359.00;2329.60;;;;;;4874370;29;20048;-77
2022/10/07 03:22:43;;;;;;;25.33;21.52;;;359.10;2329.60;;;;;;4877393;29;20025;-76
2022/10/07 03:25:13;;;;;;;31.95;22.65;;;358.80;2329.60;;;;;;4881979;29;20147;-77
2022/10/07 03:27:41;;;;;;;28.90;22.60;;;359.10;2329.60;;;;;;4940791;28;20074;-77
2022/10/07 03:30:08;;;;;;;30.63;21.80;;;359.10;2329.60;;;;;;4998668;28;20014;-77
2022/10/07 03:32:34;;;;;;;28.17;21.98;;;359.10;2329.60;;;;;;4998713;28;20029;-75
2022/10/07 03:34:59;;;;;;;30.20;24.50;;;359.10;2329.60;;;;;;4996001;28;20042;-77
2022/10/07 03:37:28;;;;;;;33.08;24.83;;;359.10;2329.60;;;;;;5005814;28;20100;-76
2022/10/07 03:39:53;;;;;;;25.92;22.38;;;359.20;2329.60;;;;;;5004374;28;20515;-76
2022/10/07 03:42:19;;;;;;;29.42;24.10;;;359.20;2329.60;;;;;;5001366;28;20030;-76
2022/10/07 03:44:47;;;;;;;37.20;24.58;;;359.10;2329.60;;;;;;5002094;28;20030;-76
2022/10/07 03:47:15;;;;;;;28.48;22.48;;;359.20;2329.60;;;;;;5002076;28;20022;-76
2022/10/07 03:49:41;;;;;;;27.67;23.10;;;359.20;2329.60;;;;;;5004245;28;20349;-76
2022/10/07 03:52:07;;;;;;;30.55;23.05;;;359.20;2329.60;;;;;;5000999;28;20018;-75
2022/10/07 03:54:33;;;;;;;28.80;22.98;;;359.20;2329.60;;;;;;4995774;28;20460;-76
2022/10/07 03:56:59;;;;;;;31.20;22.45;;;359.20;2329.60;;;;;;5005349;28;20022;-76
2022/10/07 03:59:25;;;;;;;27.55;22.30;;;359.20;2329.60;;;;;;5000370;28;20480;-76
2022/10/07 04:01:51;;;;;;;28.90;21.15;;;359.20;2329.60;;;;;;5000632;28;20069;-76
2022/10/07 04:04:16;;;;;;;29.10;22.00;;;359.20;2329.60;;;;;;5019629;28;20518;-76
2022/10/07 04:06:42;;;;;;;28.30;21.77;;;359.20;2329.60;;;;;;5018132;28;20022;-77
2022/10/07 04:09:10;;;;;;;35.72;22.40;;;359.10;2329.60;;;;;;5020632;28;20014;-77
2022/10/07 04:11:39;;;;;;;25.77;21.60;;;359.10;2329.60;;;;;;5023190;28;20025;-77
2022/10/07 04:14:05;;;;;;;31.33;21.40;;;359.20;2329.60;;;;;;5019798;28;20486;-76
2022/10/07 04:16:32;;;;;;;30.80;20.35;;;359.20;2329.60;;;;;;5015020;28;20099;-77
2022/10/07 04:18:59;;;;;;;30.48;19.70;;;359.20;2329.60;;;;;;5017724;28;20490;-76
2022/10/07 04:21:25;;;;;;;27.25;20.33;;;359.20;2329.60;;;;;;5019819;28;20022;-78
2022/10/07 04:23:50;;;;;;;22.55;19.02;;;359.20;2329.60;;;;;;5020058;28;20494;-77
2022/10/07 04:26:16;;;;;;;23.35;19.17;;;359.10;2329.60;;;;;;5011921;28;20030;-78
2022/10/07 04:28:42;;;;;;;25.02;19.17;;;359.00;2329.60;;;;;;5011956;28;20030;-76
2022/10/07 04:31:09;;;;;;;26.77;19.85;;;359.00;2329.60;;;;;;5017360;28;20029;-77
2022/10/07 04:33:40;;;;;;;32.72;19.92;;;359.00;2329.60;;;;;;4999742;28;20026;-76
2022/10/07 04:36:08;;;;;;;26.35;20.35;;;359.00;2329.60;;;;;;5020208;28;20420;-76
2022/10/07 04:38:34;;;;;;;24.13;19.33;;;359.00;2329.60;;;;;;5011866;28;20026;-76
2022/10/07 04:41:04;;;;;;;29.67;20.80;;;359.00;2329.60;;;;;;5028183;28;20092;-75
2022/10/07 04:43:32;;;;;;;25.25;19.50;;;359.00;2329.60;;;;;;5027468;28;20022;-77
2022/10/07 04:46:07;;;;;;;27.50;19.85;;;359.00;2329.60;;;;;;5014255;28;20056;-77
2022/10/07 04:48:33;;;;;;;25.83;19.88;;;359.10;2329.60;;;;;;5004229;28;20025;-76
2022/10/07 04:51:04;;;;;;;28.58;20.05;;;359.10;2329.60;;;;;;5017741;28;20075;-76
2022/10/07 04:53:30;;;;;;;29.35;20.73;;;359.10;2329.60;;;;;;5014291;28;20021;-77
2022/10/07 04:55:57;;;;;;;26.67;20.27;;;359.10;2329.60;;;;;;5028305;28;20032;-77
2022/10/07 04:58:23;;;;;;;26.20;19.15;;;359.10;2329.60;;;;;;5016778;28;20036;-76
2022/10/07 05:00:51;;;;;;;28.98;20.92;;;359.00;2329.60;;;;;;5024091;28;20104;-77
2022/10/07 05:03:19;;;;;;;27.90;20.77;;;359.00;2329.60;;;;;;5025878;28;20554;-76
2022/10/07 05:05:47;;;;;;;40.33;20.55;;;359.10;2329.60;;;;;;5020543;28;20024;-77
2022/10/07 05:08:14;;;;;;;22.23;18.60;;;359.10;2329.60;;;;;;5024447;28;20022;-76
2022/10/07 05:10:40;;;;;;;29.70;19.42;;;359.10;2329.60;;;;;;5019648;28;20014;-77
2022/10/07 05:13:11;;;;;;;33.38;19.85;;;359.10;2329.60;;;;;;5029094;28;20021;-77
2022/10/07 05:15:37;;;;;;;26.63;20.38;;;359.20;2329.60;;;;;;5029133;28;20017;-77
2022/10/07 05:18:05;;;;;;;32.92;20.92;;;359.20;2329.60;;;;;;5025520;28;20029;-78
2022/10/07 05:20:32;;;;;;;24.95;19.25;;;359.10;2329.60;;;;;;5020772;28;20021;-83
2022/10/07 05:22:57;;;;;;;24.40;20.02;;;359.10;2329.60;;;;;;5003485;28;20025;-78
2022/10/07 05:25:23;;;;;;;31.42;19.65;;;359.20;2329.60;;;;;;5022258;28;20017;-81
2022/10/07 05:27:55;;;;;;;25.17;20.65;;;359.20;2329.60;;;;;;5002771;28;20391;-75
2022/10/07 05:30:21;;;;;;;30.35;20.98;;;359.30;2329.60;;;;;;5026265;28;20432;-77
2022/10/07 05:32:46;;;;;;;31.92;19.65;;;359.20;2329.60;;;;;;5030613;28;20140;-76
2022/10/07 05:35:13;;;;;;;28.90;19.15;;;359.20;2329.60;;;;;;5050895;28;20060;-76
2022/10/07 05:37:38;;;;;;;23.67;19.45;;;359.20;2329.60;;;;;;5046298;28;20166;-76
2022/10/07 05:40:04;;;;;;;28.42;20.60;;;359.20;2329.60;;;;;;5054642;28;20056;-77
2022/10/07 05:42:30;;;;;;;30.63;21.08;;;359.20;2329.60;;;;;;5006389;28;20476;-76
2022/10/07 05:44:56;;;;;;;29.80;22.33;;;359.10;2329.60;;;;;;5046275;28;20053;-77
2022/10/07 05:47:21;;;;;;;34.35;20.60;;;359.20;2329.60;;;;;;5044027;28;20024;-78
2022/10/07 05:49:47;;;;;;;32.47;21.35;;;359.20;2329.60;;;;;;5039427;28;20032;-77
2022/10/07 05:52:13;;;;;;;26.02;19.10;;;359.30;2329.60;;;;;;5030760;28;20036;-77
2022/10/07 05:54:38;;;;;;;26.88;21.35;;;359.30;2329.60;;;;;;5041978;28;20021;-81
2022/10/07 05:57:04;;;;;;;31.20;21.83;;;359.30;2329.60;;;;;;5055272;28;20036;-76
2022/10/07 05:59:30;;;;;;;26.77;20.40;;;384.00;2329.60;;;;;;5050220;28;20560;-77
2022/10/07 06:01:59;;;;;;;30.55;21.52;;;384.10;2329.60;;;;;;5045948;28;20060;-77
2022/10/07 06:04:26;;;;;;;27.33;20.10;;;384.10;2329.60;;;;;;5054764;28;20123;-79
2022/10/07 06:06:52;;;;;;;29.58;20.35;;;384.00;2329.60;;;;;;5028348;28;20021;-79
2022/10/07 06:14:46;;;;;;;29.25;19.88;;;384.10;2329.60;;;;;;5055339;28;20036;-78
2022/10/07 06:17:11;;;;;;;29.20;19.48;;;384.20;2329.60;;;;;;5054896;28;20033;-81
2022/10/07 06:19:37;;;;;;;29.40;19.98;;;384.10;2329.60;;;;;;5054805;28;20037;-83
2022/10/07 06:22:03;;;;;;;31.10;21.05;;;384.10;2329.60;;;;;;5046707;28;20419;-80
2022/10/07 06:24:29;;;;;;;29.15;20.80;;;384.30;2329.60;;;;;;5049112;28;20033;-76
2022/10/07 06:26:55;;;;;;;27.23;19.63;;;384.30;2329.60;;;;;;5054755;28;20478;-79
2022/10/07 06:29:21;;;;;;;24.95;17.20;;;384.30;2329.60;;;;;;5036604;28;20119;-77
2022/10/07 06:31:46;;;;;;;33.70;19.42;;;384.20;2329.60;;;;;;5040656;28;20104;-79
2022/10/07 06:34:12;;;;;;;24.55;18.75;;;384.30;2329.60;;;;;;5054645;28;20597;-79
2022/10/07 06:36:38;;;;;;;28.42;18.75;;;384.40;2329.60;;;;;;5054622;28;20714;-77
2022/10/07 06:39:04;;;;;;;27.27;18.60;;;384.40;2329.60;;;;;;5053699;28;20497;-77
2022/10/07 06:41:29;;;;;;;34.13;19.45;;;384.40;2329.60;;;;;;5041544;28;20041;-76
2022/10/07 06:43:59;;;;;;;29.23;18.35;;;384.40;2329.60;;;;;;5052749;28;20111;-74
2022/10/07 06:46:25;;;;;;;25.92;16.67;;;384.40;2329.60;;;;;;5043231;28;20018;-75
2022/10/07 06:48:51;;;;;;;28.35;17.73;;;384.40;2329.60;;;;;;5051342;28;20484;-78
2022/10/07 06:51:18;;;;;;;29.67;17.80;;;384.40;2329.60;;;;;;5054013;28;20100;-77
2022/10/07 06:53:45;;;;;;;32.08;19.05;;;384.40;2329.60;;;;;;5022393;28;20397;-77
2022/10/07 06:56:13;;;;;;;28.15;17.58;;;384.60;2329.60;;;;;;5054059;28;20367;-77
2022/10/07 06:58:39;;;;;;;25.48;17.98;;;384.50;2329.60;;;;;;5040138;28;20506;-76
2022/10/07 07:01:05;;;;;;;25.27;15.98;;;384.60;2329.60;;;;;;5035489;28;20041;-78
2022/10/07 07:03:31;;;;;;;25.33;16.85;;;384.60;2329.60;;;;;;5035982;28;20048;-77
2022/10/07 07:05:57;;;;;;;28.77;15.93;;;384.50;2329.60;;;;;;5021961;28;20028;-76
2022/10/07 07:08:31;;;;;;;22.75;15.02;;;384.50;2329.60;;;;;;5043954;28;20474;-76
2022/10/07 07:11:34;;;;;;;25.35;15.90;;;384.60;2329.60;;;;;;5033068;28;20063;-76
2022/10/07 07:13:51;;;;;;;24.38;15.10;;;384.70;2329.60;;;;;;5040608;28;20029;-76
2022/10/07 07:16:16;;;;;;;23.98;14.93;;;384.80;2329.60;;;;;;5038905;28;20013;-78
2022/10/07 07:18:42;;;;;;;21.05;14.13;;;384.90;2329.60;;;;;;5035690;28;20533;-77
2022/10/07 07:21:10;;;;;;;24.77;14.38;;;384.90;2329.60;;;;;;5053489;28;20017;-81
2022/10/07 07:23:35;;;;;;;20.83;14.38;;;409.60;2355.20;;;;;;5035871;28;20017;-78
2022/10/07 07:26:01;;;;;;;21.52;13.13;;;384.90;2329.60;;;;;;5039476;28;20403;-79
2022/10/07 07:28:27;;;;;;;20.83;12.75;;;384.70;2329.60;;;;;;5028414;28;20455;-77
2022/10/07 07:30:52;;;;;;;17.80;13.18;;;384.70;2329.60;;;;;;5028814;28;20029;-77
2022/10/07 07:33:18;;;;;;;22.50;13.25;;;384.70;2329.60;;;;;;5021750;28;20044;-77
2022/10/07 07:35:44;;;;;;;22.98;15.05;;;384.50;2329.60;;;;;;5034747;28;20486;-77
2022/10/07 07:38:10;;;;;;;23.17;14.40;;;384.60;2329.60;;;;;;5032319;28;20063;-77
2022/10/07 07:40:37;;;;;;;21.40;15.20;;;384.60;2329.60;;;;;;5037210;28;20100;-77
2022/10/07 07:43:03;;;;;;;24.27;15.68;;;384.60;2329.60;;;;;;5015762;28;20041;-76
2022/10/07 07:45:31;;;;;;;20.75;14.52;;;384.50;2329.60;;;;;;5036453;28;20471;-76
2022/10/07 07:47:58;;;;;;;23.70;15.85;;;384.70;2329.60;;;;;;5053034;28;20036;-78
2022/10/07 07:50:26;;;;;;;19.92;15.30;;;384.70;2329.60;;;;;;5052665;28;20121;-76
2022/10/07 07:52:52;;;;;;;25.67;16.48;;;384.80;2329.60;;;;;;5035306;28;20033;-75
2022/10/07 07:55:21;;;;;;;20.02;14.32;;;384.60;2329.60;;;;;;5052973;28;20067;-75
2022/10/07 07:57:47;;;;;;;23.35;14.93;;;384.70;2329.60;;;;;;5052535;28;20123;-75
2022/10/07 08:00:15;;;;;;;24.95;17.08;;;384.90;2329.60;;;;;;5040317;28;20022;-75
2022/10/07 08:02:41;;;;;;;25.88;15.60;;;384.90;2329.60;;;;;;5051227;28;20461;-76
2022/10/07 08:05:08;;;;;;;23.08;17.50;;;409.70;2355.20;;;;;;5052905;28;20033;-74
2022/10/07 08:07:34;;;;;;;31.92;17.00;;;409.70;2355.20;;;;;;5049238;28;20143;-77
2022/10/07 08:10:00;;;;;;;30.42;17.48;;;409.80;2355.20;;;;;;5032793;28;20024;-75
2022/10/07 08:12:26;;;;;;;25.92;16.27;;;409.80;2355.20;;;;;;5032894;28;20430;-77
2022/10/07 08:14:52;;;;;;;23.98;16.52;;;409.70;2355.20;;;;;;5022436;28;20028;-76
2022/10/07 08:17:18;;;;;;;25.30;18.38;;;409.90;2355.20;;;;;;5039325;28;20049;-76
2022/10/07 08:19:43;;;;;;;31.20;18.42;;;409.80;2355.20;;;;;;5051720;28;20108;-80
2022/10/07 08:22:12;;;;;;;24.27;18.48;;;409.90;2355.20;;;;;;5052668;28;20044;-79
2022/10/07 08:24:38;;;;;;;24.17;18.70;;;410.00;2355.20;;;;;;5016985;28;20026;-80
2022/10/07 08:27:03;;;;;;;28.33;19.38;;;410.00;2355.20;;;;;;5015139;28;20029;-77
2022/10/07 08:29:29;;;;;;;23.58;16.60;;;410.10;2355.20;;;;;;5028634;28;20028;-76
2022/10/07 08:31:55;;;;;;;24.77;15.90;;;410.20;2355.20;;;;;;5014336;28;20029;-77
2022/10/07 08:34:21;;;;;;;23.83;14.93;;;410.40;2355.20;;;;;;5014920;28;20045;-77
2022/10/07 08:36:48;;;;;;;22.48;16.63;;;410.40;2355.20;;;;;;5046215;28;20471;-80
2022/10/07 08:39:14;;;;;;;27.25;17.63;;;410.50;2355.20;;;;;;5014858;28;20029;-81
2022/10/07 08:42:12;;;;;;;21.63;15.20;;;435.20;2355.20;;;;;;5047586;28;20022;-76
2022/10/07 08:44:41;;;;;;;20.88;15.90;;;435.20;2355.20;;;;;;5042211;28;20017;-76
2022/10/07 08:47:31;;;;;;;21.98;16.20;;;435.30;2355.20;;;;;;5035261;28;20024;-76
2022/10/07 08:50:12;;;;;;;30.95;15.73;;;435.40;2355.20;;;;;;5026635;28;20134;-77
2022/10/07 08:52:38;;;;;;;20.52;14.85;;;435.50;2355.20;;;;;;5052072;28;20062;-79
2022/10/07 08:55:26;;;;;;;19.55;14.77;;;435.70;2355.20;;;;;;5052331;28;20029;-79
2022/10/07 08:58:18;;;;;;;25.95;16.08;;;435.80;2355.20;;;;;;5001881;28;20083;-80
2022/10/07 09:01:23;;;;;;;27.50;15.13;;;435.80;2355.20;;;;;;5030970;28;20090;-78
2022/10/07 09:04:14;;;;;;;20.73;15.40;;;436.00;2355.20;;;;;;5046488;28;20059;-76
2022/10/07 09:06:46;;;;;;;20.40;15.35;;;436.10;2355.20;;;;;;5051794;28;20028;-75
2022/10/07 09:09:18;;;;;;;19.80;15.45;;;436.10;2355.20;;;;;;5038073;28;20018;-80
2022/10/07 09:11:47;;;;;;;21.92;15.40;;;460.80;2380.80;;;;;;5051782;28;20032;-77
2022/10/07 09:14:38;;;;;;;23.40;16.00;;;461.00;2380.80;;;;;;5018255;28;20574;-79
2022/10/07 09:17:16;;;;;;;23.55;15.07;;;461.10;2380.80;;;;;;5043736;28;20053;-80
2022/10/07 09:19:47;;;;;;;24.38;15.80;;;461.30;2380.80;;;;;;5020160;28;20172;-81
2022/10/07 09:22:30;;;;;;;19.98;14.55;;;461.40;2380.80;;;;;;5022377;28;20033;-78
2022/10/07 09:25:22;;;;;;;20.88;14.30;;;461.50;2380.80;;;;;;5020793;28;20382;-77
2022/10/07 09:27:50;;;;;;;20.88;13.93;;;461.70;2380.80;;;;;;5033904;28;20036;-76
2022/10/07 09:30:21;;;;;;;21.05;15.95;;;461.70;2380.80;;;;;;5033870;28;20474;-78
2022/10/07 09:32:52;;;;;;;21.90;15.52;;;486.50;2380.80;;;;;;5020027;28;20033;-81
2022/10/07 09:35:24;;;;;;;23.25;17.50;;;486.80;2380.80;;;;;;5026641;28;20029;-82
2022/10/07 09:38:02;;;;;;;24.92;17.23;;;487.00;2380.80;;;;;;5028742;28;20033;-79
2022/10/07 09:41:13;;;;;;;21.42;14.73;;;487.10;2380.80;;;;;;5029884;28;20032;-79
2022/10/07 09:43:24;;;;;;;22.77;16.23;;;487.30;2380.80;;;;;;5045631;28;20055;-78
2022/10/07 09:45:50;;;;;;;18.90;16.17;;;487.30;2380.80;;;;;;5027720;28;20113;-75
2022/10/07 09:48:28;;;;;;;24.25;15.63;;;487.30;2380.80;;;;;;5043899;28;20048;-79
2022/10/07 09:51:15;;;;;;;21.23;15.38;;;487.30;2380.80;;;;;;5051574;28;20025;-80
2022/10/07 09:54:02;;;;;;;22.58;13.73;;;512.10;2380.80;;;;;;5033804;28;20178;-82
2022/10/07 09:56:45;;;;;;;18.45;13.68;;;512.30;2380.80;;;;;;5018550;28;20020;-76
2022/10/07 09:59:17;;;;;;;19.38;13.35;;;512.50;2380.80;;;;;;5019962;28;20049;-78
2022/10/07 10:01:51;;;;;;;24.63;15.23;;;512.60;2380.80;;;;;;5019516;28;20030;-80
2022/10/07 10:04:18;;;;;;;19.38;13.02;;;512.70;2380.80;;;;;;5049169;28;20057;-83
2022/10/07 10:06:49;;;;;;;16.88;13.02;;;537.60;2406.40;;;;;;5014522;28;20025;-75
2022/10/07 10:09:24;;;;;;;18.38;12.50;;;537.80;2406.40;;;;;;5007801;28;20026;-77
2022/10/07 10:12:23;;;;;;;15.35;12.15;;;538.00;2406.40;;;;;;5016314;28;20033;-77
2022/10/07 10:14:53;;;;;;;19.58;11.52;;;538.00;2406.40;;;;;;4952766;28;20031;-80
2022/10/07 10:17:37;;;;;;;16.25;11.98;;;538.00;2406.40;;;;;;4969392;28;20039;-75
2022/10/07 10:20:24;;;;;;;17.02;11.25;;;538.00;2406.40;;;;;;4961963;28;20532;-76
2022/10/07 10:22:51;;;;;;;14.70;10.32;;;538.20;2406.40;;;;;;4966376;28;20489;-74
2022/10/07 10:28:45;;;;;;;14.32;9.95;;;538.40;2380.80;;;;;;4965465;28;20479;-76
2022/10/07 10:31:40;;;;;;;15.15;10.45;;;538.40;2380.80;;;;;;4974045;28;20050;-75
2022/10/07 10:34:23;;;;;;;15.63;10.13;;;538.40;2406.40;;;;;;4964857;28;20035;-81
2022/10/07 10:36:59;;;;;;;14.38;10.68;;;563.40;2406.40;;;;;;4967692;28;20158;-75
2022/10/07 10:40:06;;;;;;;19.05;11.20;;;563.60;2432.00;;;;;;4964887;28;20449;-76
2022/10/07 10:42:44;;;;;;;17.08;11.55;;;564.00;2252.80;;;;;;4933495;28;20164;-77
2022/10/07 10:45:47;;;;;;;17.90;11.60;;;564.00;2329.60;;;;;;4968418;28;20031;-75
2022/10/07 10:48:29;;;;;;;15.65;9.93;;;588.80;2406.40;;;;;;4896864;29;20116;-75
2022/10/07 10:51:09;;;;;;;13.57;9.32;;;589.20;2073.60;;;;;;4924145;29;20040;-74
2022/10/07 10:53:55;;;;;;;15.73;10.63;;;589.50;1971.20;;;;;;4928972;29;20072;-76
2022/10/07 10:56:37;;;;;;;20.88;11.70;;;589.50;2124.80;;;;;;4925558;29;20059;-79
2022/10/07 10:59:28;;;;;;;20.52;7.43;;;589.50;2099.20;;;;;;4914714;29;20123;-76
2022/10/07 11:02:34;;;;;;;12.07;8.20;;;589.20;1945.60;;;;;;4920101;29;20039;-74
2022/10/07 11:05:16;;;;;;;11.15;7.30;;;589.50;1971.20;;;;;;4925276;29;20047;-78
2022/10/07 11:07:55;;;;;;;12.38;6.95;;;614.40;1920.00;;;;;;4922632;29;20038;-74
2022/10/07 11:10:43;;;;;;;11.95;7.55;;;589.50;1868.80;;;;;;4916024;29;20040;-72
2022/10/07 11:13:12;;;;;;;11.65;6.97;;;589.40;1945.60;;;;;;4953190;29;20047;-75
2022/10/07 11:15:50;;;;;;;10.93;6.85;;;589.50;1920.00;;;;;;4953588;29;20031;-75
2022/10/07 11:18:44;;;;;;;9.45;6.70;;;589.60;1894.40;;;;;;4953622;29;20054;-74
2022/10/07 11:21:17;;;;;;;12.88;6.90;;;614.40;1843.20;;;;;;4953125;29;20047;-75
2022/10/07 11:23:47;;;;;;;10.90;6.88;;;614.60;1792.00;;;;;;4957319;28;20110;-74
2022/10/07 11:26:18;;;;;;;9.23;6.65;;;615.00;1715.20;;;;;;5032925;28;20040;-75
2022/10/07 11:28:45;;;;;;;9.68;6.60;;;615.00;1817.60;;;;;;5022350;28;20038;-75
2022/10/07 11:31:32;;;;;;;8.88;6.20;;;615.00;1766.40;;;;;;5030802;28;20096;-74
2022/10/07 11:34:18;;;;;;;13.75;6.75;;;614.80;1766.40;;;;;;5033488;28;20545;-76
2022/10/07 11:36:53;;;;;;;10.32;6.22;;;614.80;1843.20;;;;;;5033429;28;20033;-79
2022/10/07 11:39:20;;;;;;;10.13;6.32;;;614.70;1843.20;;;;;;5033283;28;20783;-75
2022/10/07 11:41:58;;;;;;;10.60;6.63;;;614.60;1843.20;;;;;;5019176;28;20022;-75
2022/10/07 11:45:01;;;;;;;8.35;5.22;;;614.60;1766.40;;;;;;5032954;28;20025;-75
2022/10/07 11:47:35;;;;;;;7.60;6.20;;;615.30;1715.20;;;;;;4928425;29;20525;-75
2022/10/07 11:50:15;;;;;;;17.63;7.28;;;615.30;1689.60;;;;;;4914305;29;20023;-75
2022/10/07 11:52:46;;;;;;;8.80;5.57;;;615.10;1638.40;;;;;;4913986;29;20062;-75
2022/10/07 11:55:23;;;;;;;13.15;5.43;;;614.90;1689.60;;;;;;4913936;29;20039;-75
2022/10/07 11:57:57;;;;;;;8.60;5.68;;;614.70;1664.00;;;;;;4914109;29;20074;-74
2022/10/07 12:00:32;;;;;;;12.07;5.60;;;614.90;1689.60;;;;;;4912404;29;20075;-74
2022/10/07 12:03:16;;;;;;;12.00;6.50;;;615.10;1766.40;;;;;;4916206;29;20142;-75
2022/10/07 12:05:48;;;;;;;9.85;5.18;;;615.30;1664.00;;;;;;4929303;29;20265;-76
2022/10/07 12:08:25;;;;;;;14.18;6.03;;;615.20;1612.80;;;;;;4929471;29;20048;-74
2022/10/07 12:10:52;;;;;;;12.55;6.70;;;615.20;1715.20;;;;;;4933582;28;20103;-75
2022/10/07 12:13:19;;;;;;;14.77;7.40;;;615.20;1766.40;;;;;;4931459;29;20040;-75
2022/10/07 12:15:46;;;;;;;13.52;6.75;;;640.10;1689.60;;;;;;4933239;29;20039;-78
2022/10/07 12:18:18;;;;;;;13.57;6.95;;;640.40;1612.80;;;;;;4933508;29;20537;-77
2022/10/07 12:20:49;;;;;;;14.50;6.20;;;640.10;1664.00;;;;;;4933198;29;20028;-77
2022/10/07 12:23:21;;;;;;;10.52;6.22;;;615.10;1689.60;;;;;;4954688;28;20168;-75
2022/10/07 12:25:47;;;;;;;13.98;7.57;;;614.90;1715.20;;;;;;4999348;28;20026;-76
2022/10/07 12:28:18;;;;;;;10.77;7.38;;;614.60;1766.40;;;;;;5012475;28;20075;-75
2022/10/07 12:30:52;;;;;;;10.13;7.10;;;614.50;1843.20;;;;;;5031370;28;20022;-75